createdAt,value
2022-08-11T00:00:28.968Z,29.34
2022-08-11T00:00:59.010Z,29.37
2022-08-11T00:01:29.044Z,29.29
2022-08-11T00:01:59.087Z,29.42
2022-08-11T00:02:29.238Z,29.29
2022-08-11T00:02:59.292Z,29.31
2022-08-11T00:03:43.834Z,29.36
2022-08-11T00:03:59.380Z,29.32
2022-08-11T00:04:29.403Z,29.31
2022-08-11T00:04:59.401Z,29.31
2022-08-11T00:05:29.399Z,29.37
2022-08-11T00:05:59.397Z,29.36
2022-08-11T00:06:29.394Z,29.39
2022-08-11T00:06:59.398Z,29.37
2022-08-11T00:07:29.395Z,29.34
2022-08-11T00:07:59.394Z,29.37
2022-08-11T00:08:29.399Z,29.34
2022-08-11T00:08:59.393Z,29.37
2022-08-11T00:09:29.393Z,29.32
2022-08-11T00:09:59.393Z,29.31
2022-08-11T00:10:29.389Z,29.36
2022-08-11T00:10:59.417Z,29.32
2022-08-11T00:11:29.458Z,29.35
2022-08-11T00:11:59.459Z,29.31
2022-08-11T00:12:29.572Z,29.36
2022-08-11T00:12:59.477Z,29.32
2022-08-11T00:13:29.472Z,29.37
2022-08-11T00:13:59.465Z,29.28
2022-08-11T00:14:33.702Z,29.35
2022-08-11T00:14:59.523Z,29.29
2022-08-11T00:15:29.559Z,29.28
2022-08-11T00:15:59.599Z,29.34
2022-08-11T00:16:29.631Z,29.29
2022-08-11T00:16:59.671Z,29.31
2022-08-11T00:17:29.706Z,29.29
2022-08-11T00:17:59.740Z,29.26
2022-08-11T00:18:29.776Z,29.37
2022-08-11T00:18:59.815Z,29.34
2022-08-11T00:20:12.302Z,29.29
2022-08-11T00:20:13.824Z,29.34
2022-08-11T00:20:29.953Z,29.32
2022-08-11T00:20:59.993Z,29.31
2022-08-11T00:22:01.923Z,29.31
2022-08-11T00:22:04.282Z,29.27
2022-08-11T00:22:30.140Z,29.35
2022-08-11T00:23:00.176Z,29.35
2022-08-11T00:23:30.216Z,29.29
2022-08-11T00:24:00.252Z,29.32
2022-08-11T00:24:30.284Z,29.31
2022-08-11T00:25:02.562Z,29.37
2022-08-11T00:25:30.413Z,29.32
2022-08-11T00:26:00.451Z,29.32
2022-08-11T00:26:30.487Z,29.24
2022-08-11T00:27:00.520Z,29.27
2022-08-11T00:27:30.553Z,29.29
2022-08-11T00:28:00.596Z,29.32
2022-08-11T00:28:30.631Z,29.29
2022-08-11T00:29:00.670Z,29.31
2022-08-11T00:29:30.708Z,29.29
2022-08-11T00:30:00.745Z,29.32
2022-08-11T00:30:30.779Z,29.31
2022-08-11T00:31:00.819Z,29.32
2022-08-11T00:31:30.892Z,29.28
2022-08-11T00:32:00.929Z,29.26
2022-08-11T00:32:30.965Z,29.29
2022-08-11T00:33:01.006Z,29.30
2022-08-11T00:33:41.420Z,29.27
2022-08-11T00:34:01.092Z,29.29
2022-08-11T00:34:31.131Z,29.32
2022-08-11T00:35:49.920Z,29.32
2022-08-11T00:35:55.548Z,29.32
2022-08-11T00:36:01.274Z,29.29
2022-08-11T00:36:31.310Z,29.30
2022-08-11T00:37:01.344Z,29.30
2022-08-11T00:37:31.385Z,29.32
2022-08-11T00:38:01.424Z,29.26
2022-08-11T00:38:31.457Z,29.30
2022-08-11T00:39:01.490Z,29.27
2022-08-11T00:39:31.602Z,29.32
2022-08-11T00:40:01.594Z,29.29
2022-08-11T00:40:31.562Z,29.28
2022-08-11T00:41:01.608Z,29.26
2022-08-11T00:41:31.641Z,29.26
2022-08-11T00:42:01.684Z,29.30
2022-08-11T00:42:31.729Z,29.30
2022-08-11T00:43:01.783Z,29.26
2022-08-11T00:43:31.822Z,29.29
2022-08-11T00:44:01.862Z,29.23
2022-08-11T00:44:31.897Z,29.26
2022-08-11T00:45:01.933Z,29.34
2022-08-11T00:45:31.975Z,29.26
2022-08-11T00:46:02.019Z,29.23
2022-08-11T00:46:32.058Z,29.30
2022-08-11T00:47:02.094Z,29.30
2022-08-11T00:47:32.138Z,29.26
2022-08-11T00:48:02.191Z,29.26
2022-08-11T00:48:32.230Z,29.24
2022-08-11T00:49:02.275Z,29.26
2022-08-11T00:49:32.309Z,29.30
2022-08-11T00:50:02.354Z,29.30
2022-08-11T00:50:32.386Z,29.26
2022-08-11T00:51:02.425Z,29.26
2022-08-11T00:52:04.202Z,29.29
2022-08-11T00:52:04.532Z,29.27
2022-08-11T00:52:32.627Z,29.30
2022-08-11T00:53:02.633Z,29.30
2022-08-11T00:53:32.668Z,29.27
2022-08-11T00:54:02.705Z,29.23
2022-08-11T00:54:33.212Z,29.24
2022-08-11T00:55:02.828Z,29.24
2022-08-11T00:55:32.863Z,29.26
2022-08-11T00:56:02.911Z,29.21
2022-08-11T00:56:32.942Z,29.29
2022-08-11T00:57:02.990Z,29.22
2022-08-11T00:57:36.093Z,29.23
2022-08-11T00:58:03.157Z,29.24
2022-08-11T00:58:33.192Z,29.27
2022-08-11T00:59:03.219Z,29.27
2022-08-11T00:59:34.818Z,29.22
2022-08-11T01:00:03.834Z,29.24
2022-08-11T01:00:33.551Z,29.26
2022-08-11T01:01:03.584Z,29.27
2022-08-11T01:01:33.493Z,29.28
2022-08-11T01:02:03.531Z,29.32
2022-08-11T01:02:33.562Z,29.19
2022-08-11T01:03:03.630Z,29.23
2022-08-11T01:03:33.658Z,29.22
2022-08-11T01:04:03.692Z,29.16
2022-08-11T01:04:33.707Z,29.16
2022-08-11T01:05:03.710Z,29.21
2022-08-11T01:05:33.704Z,29.24
2022-08-11T01:06:03.706Z,29.21
2022-08-11T01:06:33.980Z,29.21
2022-08-11T01:07:03.831Z,29.26
2022-08-11T01:08:02.012Z,29.26
2022-08-11T01:08:03.843Z,29.22
2022-08-11T01:08:33.842Z,29.17
2022-08-11T01:09:03.964Z,29.24
2022-08-11T01:09:33.982Z,29.22
2022-08-11T01:10:07.376Z,29.22
2022-08-11T01:10:33.978Z,29.22
2022-08-11T01:11:03.980Z,29.24
2022-08-11T01:11:33.981Z,29.25
2022-08-11T01:12:04.017Z,29.16
2022-08-11T01:12:34.006Z,29.16
2022-08-11T01:13:03.987Z,29.22
2022-08-11T01:13:34.049Z,29.21
2022-08-11T01:14:04.038Z,29.24
2022-08-11T01:14:34.812Z,29.22
2022-08-11T01:15:04.133Z,29.21
2022-08-11T01:15:34.172Z,29.30
2022-08-11T01:16:04.207Z,29.19
2022-08-11T01:16:34.243Z,29.20
2022-08-11T01:17:04.298Z,29.27
2022-08-11T01:17:34.338Z,29.24
2022-08-11T01:18:04.375Z,29.27
2022-08-11T01:18:34.531Z,29.21
2022-08-11T01:19:04.442Z,29.17
2022-08-11T01:19:34.486Z,29.22
2022-08-11T01:20:44.750Z,29.22
2022-08-11T01:20:47.639Z,29.24
2022-08-11T01:21:04.642Z,29.25
2022-08-11T01:21:34.680Z,29.19
2022-08-11T01:22:04.716Z,29.24
2022-08-11T01:22:34.760Z,29.22
2022-08-11T01:23:04.796Z,29.20
2022-08-11T01:23:34.943Z,29.22
2022-08-11T01:24:04.981Z,29.22
2022-08-11T01:24:35.024Z,29.24
2022-08-11T01:25:05.054Z,29.17
2022-08-11T01:25:35.096Z,29.19
2022-08-11T01:26:05.151Z,29.28
2022-08-11T01:26:35.184Z,29.21
2022-08-11T01:27:05.251Z,29.19
2022-08-11T01:27:35.302Z,29.25
2022-08-11T01:28:05.336Z,29.25
2022-08-11T01:28:35.378Z,29.22
2022-08-11T01:29:05.420Z,29.24
2022-08-11T01:29:35.454Z,29.17
2022-08-11T01:30:05.495Z,29.22
2022-08-11T01:30:35.535Z,29.22
2022-08-11T01:31:05.572Z,29.20
2022-08-11T01:31:35.607Z,29.16
2022-08-11T01:32:05.652Z,29.19
2022-08-11T01:32:35.688Z,29.17
2022-08-11T01:33:05.727Z,29.21
2022-08-11T01:33:35.765Z,29.22
2022-08-11T01:34:05.803Z,29.22
2022-08-11T01:34:35.839Z,29.14
2022-08-11T01:35:05.881Z,29.16
2022-08-11T01:35:35.915Z,29.23
2022-08-11T01:36:05.928Z,29.12
2022-08-11T01:36:35.966Z,29.16
2022-08-11T01:37:06.004Z,29.17
2022-08-11T01:37:36.043Z,29.11
2022-08-11T01:38:06.084Z,29.17
2022-08-11T01:38:36.126Z,29.22
2022-08-11T01:39:06.164Z,29.17
2022-08-11T01:39:36.236Z,29.19
2022-08-11T01:40:06.287Z,29.19
2022-08-11T01:40:36.321Z,29.20
2022-08-11T01:41:06.364Z,29.20
2022-08-11T01:41:36.404Z,29.19
2022-08-11T01:42:06.440Z,29.12
2022-08-11T01:42:36.641Z,29.22
2022-08-11T01:43:06.590Z,29.10
2022-08-11T01:43:36.625Z,29.15
2022-08-11T01:44:12.910Z,29.20
2022-08-11T01:44:36.718Z,29.17
2022-08-11T01:45:06.753Z,29.17
2022-08-11T01:45:36.787Z,29.15
2022-08-11T01:46:06.828Z,29.19
2022-08-11T01:46:36.869Z,29.10
2022-08-11T01:47:06.904Z,29.15
2022-08-11T01:47:37.012Z,29.20
2022-08-11T01:48:07.051Z,29.17
2022-08-11T01:48:37.091Z,29.17
2022-08-11T01:50:06.806Z,29.20
2022-08-11T01:50:08.683Z,29.28
2022-08-11T01:50:10.508Z,29.20
2022-08-11T01:50:37.297Z,29.15
2022-08-11T01:51:07.329Z,29.22
2022-08-11T01:51:39.932Z,29.23
2022-08-11T01:52:07.428Z,29.26
2022-08-11T01:52:37.465Z,29.23
2022-08-11T01:53:07.497Z,29.22
2022-08-11T01:53:37.536Z,29.19
2022-08-11T01:54:07.543Z,29.26
2022-08-11T01:54:37.575Z,29.19
2022-08-11T01:55:07.613Z,29.19
2022-08-11T01:55:37.651Z,29.20
2022-08-11T01:56:07.683Z,29.18
2022-08-11T01:56:37.722Z,29.17
2022-08-11T01:57:07.758Z,29.09
2022-08-11T01:57:37.793Z,29.18
2022-08-11T01:58:07.835Z,29.17
2022-08-11T01:58:44.028Z,29.17
2022-08-11T01:59:07.929Z,29.18
2022-08-11T01:59:37.972Z,29.21
2022-08-11T02:00:08.019Z,29.17
2022-08-11T02:00:38.071Z,29.15
2022-08-11T02:01:08.151Z,29.12
2022-08-11T02:01:38.181Z,29.14
2022-08-11T02:02:08.236Z,29.15
2022-08-11T02:02:38.359Z,29.17
2022-08-11T02:03:08.323Z,29.18
2022-08-11T02:03:38.364Z,29.17
2022-08-11T02:04:08.398Z,29.09
2022-08-11T02:04:38.412Z,29.11
2022-08-11T02:05:08.416Z,29.12
2022-08-11T02:05:38.410Z,29.19
2022-08-11T02:06:08.410Z,29.18
2022-08-11T02:06:38.415Z,29.22
2022-08-11T02:07:09.057Z,29.11
2022-08-11T02:07:38.440Z,29.10
2022-08-11T02:08:08.440Z,29.09
2022-08-11T02:08:41.143Z,29.06
2022-08-11T02:09:08.510Z,29.10
2022-08-11T02:09:38.511Z,29.15
2022-08-11T02:10:08.534Z,29.21
2022-08-11T02:10:38.668Z,29.15
2022-08-11T02:11:08.647Z,29.18
2022-08-11T02:11:38.653Z,29.12
2022-08-11T02:12:08.679Z,29.13
2022-08-11T02:12:38.888Z,29.13
2022-08-11T02:13:08.750Z,29.15
2022-08-11T02:13:38.867Z,29.12
2022-08-11T02:14:08.908Z,29.10
2022-08-11T02:14:38.929Z,29.13
2022-08-11T02:15:08.963Z,29.09
2022-08-11T02:15:38.997Z,29.13
2022-08-11T02:16:09.035Z,29.18
2022-08-11T02:16:39.074Z,29.14
2022-08-11T02:17:09.108Z,29.13
2022-08-11T02:17:39.146Z,29.09
2022-08-11T02:18:09.183Z,29.15
2022-08-11T02:18:39.245Z,29.09
2022-08-11T02:19:09.288Z,29.07
2022-08-11T02:19:39.330Z,29.13
2022-08-11T02:20:09.365Z,29.09
2022-08-11T02:20:39.402Z,29.15
2022-08-11T02:21:09.444Z,29.12
2022-08-11T02:21:39.481Z,29.09
2022-08-11T02:22:09.519Z,29.09
2022-08-11T02:22:39.780Z,29.10
2022-08-11T02:23:09.611Z,29.09
2022-08-11T02:24:03.758Z,29.15
2022-08-11T02:24:09.708Z,29.07
2022-08-11T02:24:39.741Z,29.10
2022-08-11T02:25:09.775Z,29.07
2022-08-11T02:25:39.814Z,29.17
2022-08-11T04:09:48.365Z,26.26
2022-08-11T04:10:18.451Z,26.36
2022-08-11T04:10:48.551Z,26.47
2022-08-11T04:11:18.636Z,26.41
2022-08-11T04:11:48.720Z,25.79
2022-08-11T04:12:36.547Z,25.54
2022-08-11T04:12:49.398Z,25.67
2022-08-11T04:13:18.937Z,25.78
2022-08-11T04:13:49.022Z,25.99
2022-08-11T04:14:19.110Z,25.85
2022-08-11T04:14:49.196Z,25.61
2022-08-11T04:15:19.275Z,25.69
2022-08-11T04:15:49.379Z,25.61
2022-08-11T04:16:19.465Z,25.33
2022-08-11T04:16:49.545Z,25.32
2022-08-11T04:17:19.641Z,25.44
2022-08-11T04:17:49.743Z,25.31
2022-08-11T04:18:19.828Z,25.13
2022-08-11T04:18:49.910Z,25.43
2022-08-11T04:19:20.005Z,25.08
2022-08-11T04:19:50.121Z,25.06
2022-08-11T04:20:20.117Z,25.12
2022-08-11T04:20:50.119Z,25.25
2022-08-11T04:21:20.115Z,25.59
2022-08-11T04:21:50.129Z,26.11
2022-08-11T04:22:20.132Z,25.82
2022-08-11T04:22:50.250Z,25.97
2022-08-11T04:24:35.125Z,26.30
2022-08-11T04:24:35.528Z,25.92
2022-08-11T04:24:37.914Z,26.40
2022-08-11T04:24:50.772Z,25.91
2022-08-11T04:25:20.504Z,25.70
2022-08-11T04:25:57.559Z,26.08
2022-08-11T04:26:20.534Z,26.24
2022-08-11T04:26:50.573Z,26.47
2022-08-11T04:27:20.576Z,26.50
2022-08-11T04:27:50.696Z,26.40
2022-08-11T04:28:28.994Z,26.36
2022-08-11T04:28:50.859Z,26.48
2022-08-11T04:29:20.739Z,26.56
2022-08-11T04:30:02.218Z,26.73
2022-08-11T04:30:20.753Z,26.70
2022-08-11T04:30:50.746Z,26.75
2022-08-11T04:31:44.398Z,26.79
2022-08-11T04:31:52.743Z,26.73
2022-08-11T04:32:20.848Z,26.80
2022-08-11T04:32:50.862Z,26.84
2022-08-11T04:33:20.897Z,26.68
2022-08-11T04:33:52.141Z,26.59
2022-08-11T04:34:20.986Z,26.64
2022-08-11T04:34:50.982Z,26.65
2022-08-11T04:35:20.982Z,26.59
2022-08-11T04:35:51.498Z,26.48
2022-08-11T04:36:21.131Z,26.51
2022-08-11T04:36:51.154Z,26.59
2022-08-11T04:37:21.155Z,26.57
2022-08-11T04:37:53.627Z,26.53
2022-08-11T04:38:21.151Z,26.51
2022-08-11T04:38:51.146Z,26.45
2022-08-11T04:39:21.221Z,26.47
2022-08-11T04:39:51.262Z,26.39
2022-08-11T04:40:21.272Z,26.42
2022-08-11T04:40:51.266Z,26.50
2022-08-11T04:41:21.295Z,26.57
2022-08-11T04:41:51.335Z,26.58
2022-08-11T04:42:21.338Z,26.68
2022-08-11T04:42:51.335Z,26.65
2022-08-11T04:43:21.460Z,26.86
2022-08-11T04:44:02.542Z,26.91
2022-08-11T04:44:21.587Z,26.82
2022-08-11T04:44:51.584Z,26.79
2022-08-11T04:45:21.582Z,26.74
2022-08-11T04:45:51.581Z,26.79
2022-08-11T04:46:21.603Z,26.83
2022-08-11T04:46:51.596Z,26.92
2022-08-11T04:47:21.603Z,26.95
2022-08-11T04:48:01.892Z,26.90
2022-08-11T04:48:21.619Z,26.88
2022-08-11T04:48:51.644Z,26.89
2022-08-11T04:49:24.213Z,26.84
2022-08-11T04:49:51.682Z,26.86
2022-08-11T04:50:21.679Z,27.03
2022-08-11T04:51:09.047Z,27.16
2022-08-11T04:51:21.818Z,27.04
2022-08-11T04:51:51.826Z,27.10
2022-08-11T04:52:21.825Z,27.12
2022-08-11T04:52:51.821Z,27.26
2022-08-11T04:53:21.821Z,27.34
2022-08-11T04:53:52.393Z,27.36
2022-08-11T04:54:26.338Z,27.49
2022-08-11T04:54:51.877Z,27.34
2022-08-11T04:55:21.871Z,27.44
2022-08-11T04:55:51.970Z,27.45
2022-08-11T04:56:22.069Z,27.60
2022-08-11T04:56:52.071Z,27.57
2022-08-11T04:57:22.067Z,27.46
2022-08-11T04:57:52.070Z,27.52
2022-08-11T04:58:22.066Z,27.52
2022-08-11T04:58:52.089Z,27.48
2022-08-11T04:59:22.087Z,27.46
2022-08-11T04:59:52.206Z,27.36
2022-08-11T05:00:22.210Z,27.33
2022-08-11T05:00:52.213Z,27.36
2022-08-11T05:01:22.329Z,27.26
2022-08-11T05:01:52.418Z,27.23
2022-08-11T05:02:22.422Z,27.29
2022-08-11T05:02:52.317Z,27.25
2022-08-11T05:03:22.316Z,27.35
2022-08-11T05:03:52.322Z,27.28
2022-08-11T05:04:22.317Z,27.20
2022-08-11T05:04:52.322Z,27.22
2022-08-11T05:05:22.323Z,27.22
2022-08-11T05:05:56.287Z,27.15
2022-08-11T05:06:22.425Z,26.63
2022-08-11T05:06:52.455Z,26.98
2022-08-11T05:07:22.448Z,26.93
2022-08-11T05:07:52.444Z,26.98
2022-08-11T05:08:24.247Z,26.90
2022-08-11T05:08:52.466Z,27.00
2022-08-11T05:09:22.462Z,27.03
2022-08-11T05:09:52.563Z,26.98
2022-08-11T05:10:22.646Z,27.27
2022-08-11T05:10:52.741Z,27.09
2022-08-11T05:11:22.834Z,27.15
2022-08-11T05:11:57.947Z,27.17
2022-08-11T05:12:22.923Z,27.55
2022-08-11T05:12:53.023Z,26.76
2022-08-11T05:13:23.115Z,26.90
2022-08-11T05:13:53.198Z,27.04
2022-08-11T05:14:23.283Z,27.07
2022-08-11T05:14:53.370Z,27.28
2022-08-11T05:15:23.455Z,27.20
2022-08-11T05:15:53.536Z,27.10
2022-08-11T05:16:23.654Z,27.02
2022-08-11T05:16:53.808Z,27.18
2022-08-11T05:17:23.811Z,27.14
2022-08-11T05:17:53.903Z,27.04
2022-08-11T05:18:23.994Z,26.85
2022-08-11T05:18:54.079Z,26.55
2022-08-11T05:19:24.183Z,26.50
2022-08-11T05:19:54.177Z,26.58
2022-08-11T05:20:24.296Z,26.27
2022-08-11T05:20:54.551Z,26.40
2022-08-11T05:21:24.396Z,26.15
2022-08-11T05:21:54.405Z,26.31
2022-08-11T05:22:24.412Z,26.20
2022-08-11T05:22:55.323Z,26.37
2022-08-11T05:23:24.498Z,26.23
2022-08-11T05:23:54.496Z,26.29
2022-08-11T05:24:24.499Z,26.29
2022-08-11T05:24:54.498Z,26.43
2022-08-11T05:26:09.377Z,26.43
2022-08-11T05:26:44.984Z,26.63
2022-08-11T05:26:46.107Z,26.35
2022-08-11T05:26:54.557Z,26.28
2022-08-11T05:27:24.559Z,25.97
2022-08-11T05:27:54.558Z,26.07
2022-08-11T05:28:24.675Z,26.05
2022-08-11T05:28:54.679Z,26.12
2022-08-11T05:29:24.681Z,26.00
2022-08-11T05:29:54.675Z,26.24
2022-08-11T05:30:24.678Z,26.19
2022-08-11T05:30:54.673Z,26.07
2022-08-11T05:31:24.693Z,25.82
2022-08-11T05:31:54.685Z,25.89
2022-08-11T05:32:24.688Z,25.93
2022-08-11T05:32:59.392Z,25.66
2022-08-11T05:33:24.704Z,25.83
2022-08-11T05:33:54.706Z,25.78
2022-08-11T05:34:24.705Z,25.55
2022-08-11T05:34:54.900Z,25.65
2022-08-11T05:36:00.015Z,25.56
2022-08-11T05:36:02.460Z,25.60
2022-08-11T05:36:24.850Z,25.49
2022-08-11T05:37:11.584Z,25.82
2022-08-11T05:37:27.319Z,25.92
2022-08-11T05:37:54.958Z,25.79
2022-08-11T05:38:24.966Z,25.76
2022-08-11T05:38:54.970Z,25.79
2022-08-11T05:39:33.797Z,25.81
2022-08-11T05:39:55.029Z,25.84
2022-08-11T05:40:25.042Z,25.83
2022-08-11T05:41:00.227Z,25.66
2022-08-11T05:41:25.093Z,25.98
2022-08-11T05:41:55.114Z,25.97
2022-08-11T05:42:39.220Z,25.87
2022-08-11T05:42:55.121Z,26.19
2022-08-11T05:43:25.128Z,25.97
2022-08-11T05:44:20.897Z,26.00
2022-08-11T05:44:25.144Z,25.66
2022-08-11T05:44:55.143Z,25.85
2022-08-11T05:45:25.182Z,25.94
2022-08-11T05:46:03.373Z,26.11
2022-08-11T05:46:25.248Z,26.18
2022-08-11T05:46:55.243Z,26.12
2022-08-11T05:47:25.261Z,25.95
2022-08-11T05:47:55.258Z,26.16
2022-08-11T05:48:25.256Z,26.17
2022-08-11T05:48:55.269Z,26.05
2022-08-11T05:49:25.266Z,26.26
2022-08-11T05:49:55.265Z,26.22
2022-08-11T05:50:31.370Z,26.04
2022-08-11T05:50:55.306Z,26.11
2022-08-11T05:51:30.159Z,26.50
2022-08-11T05:51:57.263Z,26.35
2022-08-11T05:52:31.634Z,26.43
2022-08-11T05:52:56.677Z,26.41
2022-08-11T05:53:25.390Z,26.52
2022-08-11T05:53:55.396Z,26.43
2022-08-11T05:54:28.259Z,26.30
2022-08-11T05:54:55.500Z,26.41
2022-08-11T05:55:25.504Z,26.63
2022-08-11T05:56:03.069Z,26.50
2022-08-11T05:56:25.543Z,26.67
2022-08-11T05:56:55.540Z,26.90
2022-08-11T05:57:45.465Z,26.58
2022-08-11T05:57:55.564Z,26.57
2022-08-11T05:58:25.565Z,26.62
2022-08-11T05:58:55.570Z,26.60
2022-08-11T05:59:25.570Z,26.53
2022-08-11T05:59:55.586Z,26.99
2022-08-11T06:00:25.728Z,26.70
2022-08-11T06:00:55.736Z,26.79
2022-08-11T06:01:25.785Z,26.55
2022-08-11T06:01:55.914Z,26.92
2022-08-11T06:02:25.916Z,26.81
2022-08-11T06:02:55.921Z,26.93
2022-08-11T06:03:25.911Z,27.01
2022-08-11T06:03:57.946Z,26.85
2022-08-11T06:04:26.012Z,26.66
2022-08-11T06:04:56.009Z,26.56
2022-08-11T06:05:26.039Z,26.61
2022-08-11T06:05:56.158Z,26.44
2022-08-11T06:06:26.176Z,26.69
2022-08-11T06:06:56.177Z,26.59
2022-08-11T06:07:26.174Z,26.52
2022-08-11T06:07:57.358Z,26.49
2022-08-11T06:08:26.218Z,26.55
2022-08-11T06:08:56.221Z,26.41
2022-08-11T06:09:26.255Z,26.38
2022-08-11T06:09:56.342Z,26.41
2022-08-11T06:10:26.462Z,26.33
2022-08-11T06:10:56.460Z,26.36
2022-08-11T06:11:43.249Z,26.31
2022-08-11T06:11:56.545Z,26.17
2022-08-11T06:12:26.652Z,26.04
2022-08-11T06:12:56.646Z,26.15
2022-08-11T06:13:26.731Z,26.13
2022-08-11T06:13:56.823Z,26.01
2022-08-11T06:14:26.912Z,26.14
2022-08-11T06:14:56.998Z,26.12
2022-08-11T06:15:27.091Z,26.00
2022-08-11T06:15:57.180Z,26.03
2022-08-11T06:16:27.270Z,26.78
2022-08-11T06:16:57.361Z,26.52
2022-08-11T06:17:27.446Z,26.28
2022-08-11T06:17:57.555Z,26.44
2022-08-11T06:18:27.639Z,26.57
2022-08-11T06:18:57.724Z,26.88
2022-08-11T06:19:27.829Z,26.68
2022-08-11T06:20:06.094Z,26.53
2022-08-11T06:20:27.871Z,26.65
2022-08-11T06:20:57.875Z,26.68
2022-08-11T06:21:27.875Z,26.58
2022-08-11T06:21:57.879Z,26.42
2022-08-11T06:22:27.930Z,26.55
2022-08-11T06:22:57.933Z,26.51
2022-08-11T06:23:27.935Z,26.35
2022-08-11T06:23:57.937Z,26.51
2022-08-11T06:24:27.947Z,26.42
2022-08-11T06:24:57.951Z,26.34
2022-08-11T06:25:27.987Z,26.50
2022-08-11T06:25:57.990Z,26.19
2022-08-11T06:26:27.985Z,26.34
2022-08-11T06:27:13.979Z,26.15
2022-08-11T06:27:28.004Z,26.21
2022-08-11T06:27:58.004Z,26.04
2022-08-11T06:28:28.007Z,26.12
2022-08-11T06:28:58.005Z,25.91
2022-08-11T06:29:37.774Z,25.97
2022-08-11T06:29:58.072Z,26.08
2022-08-11T06:30:28.111Z,26.13
2022-08-11T06:30:58.109Z,26.65
2022-08-11T06:31:28.113Z,26.92
2022-08-11T06:31:58.259Z,27.07
2022-08-11T06:32:28.363Z,27.01
2022-08-11T06:32:58.280Z,26.88
2022-08-11T06:33:28.339Z,27.24
2022-08-11T06:33:58.407Z,27.37
2022-08-11T06:34:28.487Z,27.19
2022-08-11T06:34:58.521Z,27.02
2022-08-11T06:35:28.518Z,26.93
2022-08-11T06:35:58.522Z,26.87
2022-08-11T06:36:28.517Z,26.80
2022-08-11T06:36:58.532Z,26.73
2022-08-11T06:37:31.217Z,26.72
2022-08-11T06:37:59.103Z,26.48
2022-08-11T06:38:28.634Z,27.37
2022-08-11T06:38:58.632Z,27.60
2022-08-11T06:39:28.707Z,28.14
2022-08-11T06:39:58.803Z,27.77
2022-08-11T06:40:28.819Z,27.38
2022-08-11T06:40:58.815Z,27.27
2022-08-11T06:41:28.832Z,27.46
2022-08-11T06:41:58.836Z,27.31
2022-08-11T06:42:28.898Z,27.09
2022-08-11T06:42:58.943Z,27.42
2022-08-11T06:43:28.940Z,28.05
2022-08-11T06:44:03.275Z,28.28
2022-08-11T06:44:28.977Z,27.76
2022-08-11T06:44:58.970Z,27.96
2022-08-11T06:45:28.971Z,27.79
2022-08-11T06:45:58.976Z,27.92
2022-08-11T06:46:28.975Z,27.90
2022-08-11T06:46:58.995Z,27.75
2022-08-11T06:47:28.989Z,27.45
2022-08-11T06:47:59.009Z,27.39
2022-08-11T06:48:29.004Z,27.52
2022-08-11T06:48:59.012Z,27.23
2022-08-11T06:49:29.016Z,27.15
2022-08-11T06:49:59.026Z,27.50
2022-08-11T06:50:29.183Z,27.84
2022-08-11T06:50:59.054Z,27.46
2022-08-11T06:51:30.146Z,27.80
2022-08-11T06:52:00.722Z,27.48
2022-08-11T06:52:35.375Z,27.66
2022-08-11T06:52:59.187Z,27.41
2022-08-11T06:53:29.191Z,27.46
2022-08-11T06:54:04.514Z,27.52
2022-08-11T06:54:29.215Z,27.33
2022-08-11T06:54:59.214Z,27.08
2022-08-11T06:55:56.923Z,27.88
2022-08-11T06:55:59.259Z,28.28
2022-08-11T06:56:29.259Z,28.55
2022-08-11T06:57:28.422Z,28.99
2022-08-11T06:57:30.906Z,28.59
2022-08-11T06:57:59.318Z,28.54
2022-08-11T06:58:29.316Z,28.30
2022-08-11T06:58:59.445Z,28.35
2022-08-11T06:59:29.460Z,28.45
2022-08-11T06:59:59.583Z,28.11
2022-08-11T07:00:29.610Z,28.08
2022-08-11T07:00:59.628Z,27.81
2022-08-11T07:01:29.705Z,27.97
2022-08-11T07:01:59.783Z,27.85
2022-08-11T07:02:31.326Z,28.12
2022-08-11T07:02:59.818Z,28.28
2022-08-11T07:03:29.801Z,28.23
2022-08-11T07:03:59.797Z,27.96
2022-08-11T07:04:29.799Z,27.92
2022-08-11T07:04:59.796Z,27.93
2022-08-11T07:05:29.825Z,27.91
2022-08-11T07:05:59.827Z,28.44
2022-08-11T07:06:35.977Z,28.35
2022-08-11T07:06:59.843Z,28.17
2022-08-11T07:07:29.837Z,28.00
2022-08-11T07:07:59.833Z,27.83
2022-08-11T07:08:33.727Z,27.82
2022-08-11T07:08:59.877Z,27.53
2022-08-11T07:09:29.981Z,27.67
2022-08-11T07:10:00.106Z,27.41
2022-08-11T07:10:30.192Z,27.44
2022-08-11T07:11:00.277Z,27.11
2022-08-11T07:11:30.367Z,27.05
2022-08-11T07:12:00.451Z,27.08
2022-08-11T07:12:30.534Z,27.12
2022-08-11T07:13:00.625Z,26.93
2022-08-11T07:13:39.405Z,26.79
2022-08-11T07:14:00.821Z,26.80
2022-08-11T07:14:35.025Z,27.11
2022-08-11T07:15:01.231Z,27.46
2022-08-11T07:16:10.598Z,27.13
2022-08-11T07:16:11.318Z,27.09
2022-08-11T07:16:31.242Z,26.93
2022-08-11T07:17:01.327Z,27.12
2022-08-11T07:17:31.415Z,27.15
2022-08-11T07:18:01.509Z,26.93
2022-08-11T07:18:31.621Z,26.97
2022-08-11T07:19:01.688Z,27.18
2022-08-11T07:19:31.805Z,26.89
2022-08-11T07:20:01.812Z,26.75
2022-08-11T07:20:31.824Z,26.70
2022-08-11T07:21:02.535Z,26.52
2022-08-11T07:22:00.393Z,26.47
2022-08-11T07:22:03.995Z,26.42
2022-08-11T07:22:32.031Z,26.30
2022-08-11T07:23:02.154Z,26.19
2022-08-11T07:23:32.145Z,26.16
2022-08-11T07:24:02.144Z,25.86
2022-08-11T07:24:58.603Z,26.10
2022-08-11T07:25:03.494Z,26.03
2022-08-11T07:25:32.200Z,26.01
2022-08-11T07:26:02.199Z,26.08
2022-08-11T07:26:32.191Z,26.04
2022-08-11T07:27:02.193Z,26.08
2022-08-11T07:27:35.445Z,26.07
2022-08-11T07:28:02.228Z,26.22
2022-08-11T07:28:32.231Z,26.20
2022-08-11T07:29:02.229Z,26.25
2022-08-11T07:29:32.229Z,25.91
2022-08-11T07:30:02.239Z,26.01
2022-08-11T07:30:32.236Z,26.01
2022-08-11T07:31:02.235Z,26.07
2022-08-11T07:31:32.237Z,25.87
2022-08-11T07:32:02.243Z,25.95
2022-08-11T07:32:32.313Z,26.11
2022-08-11T07:33:02.364Z,26.18
2022-08-11T07:34:07.984Z,26.15
2022-08-11T07:34:08.455Z,26.06
2022-08-11T07:34:32.408Z,26.08
2022-08-11T07:35:02.421Z,26.18
2022-08-11T07:35:32.433Z,26.34
2022-08-11T07:36:02.428Z,25.96
2022-08-11T07:36:32.425Z,26.08
2022-08-11T07:37:02.422Z,26.05
2022-08-11T07:37:32.431Z,25.85
2022-08-11T07:38:04.079Z,25.88
2022-08-11T07:38:32.441Z,25.79
2022-08-11T07:39:02.553Z,25.86
2022-08-11T07:39:32.670Z,25.86
2022-08-11T07:40:02.666Z,25.72
2022-08-11T07:40:32.664Z,25.53
2022-08-11T07:41:02.663Z,25.66
2022-08-11T07:41:32.671Z,26.17
2022-08-11T07:42:02.806Z,26.58
2022-08-11T07:42:32.883Z,26.66
2022-08-11T07:43:02.914Z,26.34
2022-08-11T07:43:32.919Z,26.30
2022-08-11T07:44:02.919Z,26.12
2022-08-11T07:44:35.268Z,26.07
2022-08-11T07:45:03.025Z,25.95
2022-08-11T07:45:33.022Z,26.12
2022-08-11T07:46:03.022Z,26.15
2022-08-11T07:46:33.088Z,26.31
2022-08-11T07:47:03.111Z,26.18
2022-08-11T07:47:33.105Z,25.89
2022-08-11T07:48:03.235Z,25.81
2022-08-11T07:48:33.223Z,26.01
2022-08-11T07:49:03.226Z,25.86
2022-08-11T07:49:33.233Z,25.80
2022-08-11T07:50:03.256Z,25.74
2022-08-11T07:50:33.266Z,25.77
2022-08-11T07:51:03.254Z,25.70
2022-08-11T07:51:33.257Z,25.62
2022-08-11T07:52:03.320Z,25.96
2022-08-11T07:52:33.342Z,25.92
2022-08-11T07:53:03.352Z,26.00
2022-08-11T07:53:33.353Z,25.93
2022-08-11T07:54:07.725Z,25.73
2022-08-11T07:54:33.746Z,25.63
2022-08-11T07:55:03.540Z,25.55
2022-08-11T07:55:50.252Z,26.01
2022-08-11T07:56:03.565Z,25.99
2022-08-11T07:56:54.367Z,26.08
2022-08-11T07:57:09.130Z,25.81
2022-08-11T07:58:14.288Z,25.77
2022-08-11T07:58:16.964Z,25.66
2022-08-11T07:58:34.749Z,25.73
2022-08-11T07:59:07.536Z,25.70
2022-08-11T08:00:02.664Z,25.65
2022-08-11T08:00:05.072Z,25.43
2022-08-11T08:00:33.836Z,25.38
2022-08-11T08:01:04.034Z,25.22
2022-08-11T08:01:33.974Z,25.30
2022-08-11T08:02:04.064Z,25.27
2022-08-11T08:02:34.059Z,25.34
2022-08-11T08:03:04.071Z,25.10
2022-08-11T08:03:34.079Z,25.09
2022-08-11T08:04:04.079Z,25.11
2022-08-11T08:04:34.089Z,25.08
2022-08-11T08:05:04.090Z,25.15
2022-08-11T08:05:34.087Z,25.09
2022-08-11T08:06:04.084Z,25.11
2022-08-11T08:06:36.191Z,25.16
2022-08-11T08:07:04.126Z,25.32
2022-08-11T08:07:34.125Z,25.25
2022-08-11T08:08:04.139Z,25.16
2022-08-11T08:08:34.131Z,25.31
2022-08-11T08:09:04.166Z,25.35
2022-08-11T08:09:34.180Z,25.45
2022-08-11T08:10:04.343Z,25.47
2022-08-11T08:10:34.379Z,25.36